createdAt,value
2018-04-21T00:00:43.571Z,101636.75
2018-04-21T00:03:15.058Z,101627.99
2018-04-21T00:05:46.377Z,101631.23
2018-04-21T00:08:18.582Z,101640.43
2018-04-21T00:10:50.621Z,101644.50
2018-04-21T00:15:59.440Z,101637.13
2018-04-21T00:18:31.200Z,101631.61
2018-04-21T00:21:02.507Z,101636.19
2018-04-21T00:23:35.133Z,101632.63
2018-04-21T00:26:06.942Z,101625.46
2018-04-21T00:28:38.483Z,101626.30
2018-04-21T00:31:10.781Z,101622.49
2018-04-21T00:33:43.548Z,101618.42
2018-04-21T00:36:15.015Z,101624.42
2018-04-21T00:38:46.613Z,101619.67
2018-04-21T00:41:19.537Z,101615.27
2018-04-21T00:43:50.796Z,101618.08
2018-04-21T00:46:22.232Z,101619.75
2018-04-21T00:48:53.504Z,101615.99
2018-04-21T00:51:26.183Z,101621.21
2018-04-21T00:54:07.145Z,101621.80
2018-04-21T00:56:38.303Z,101615.67
2018-04-21T00:59:09.876Z,101618.70
2018-04-21T01:01:43.624Z,101612.91
2018-04-21T01:04:15.019Z,101621.42
2018-04-21T01:06:47.670Z,101596.75
2018-04-21T01:09:19.534Z,101617.23
2018-04-21T01:11:50.930Z,101609.67
2018-04-21T01:14:24.315Z,101620.53
2018-04-21T01:16:58.829Z,101620.34
2018-04-21T01:19:30.542Z,101621.55
2018-04-21T01:22:02.258Z,101614.33
2018-04-21T01:24:36.648Z,101611.92
2018-04-21T01:27:08.255Z,101613.28
2018-04-21T01:29:40.287Z,101612.22
2018-04-21T01:34:50.839Z,101607.84
2018-04-21T01:37:22.615Z,101610.70
2018-04-21T01:39:53.831Z,101611.37
2018-04-21T01:42:26.393Z,101607.99
2018-04-21T01:44:58.896Z,101611.61
2018-04-21T01:47:31.193Z,101611.25
2018-04-21T01:50:03.286Z,101613.94
2018-04-21T01:52:36.315Z,101605.34
2018-04-21T01:55:08.649Z,101610.06
2018-04-21T01:57:42.053Z,101608.95
2018-04-21T02:00:16.627Z,101602.67
2018-04-21T02:02:54.566Z,101603.73
2018-04-21T02:05:27.173Z,101601.68
2018-04-21T02:07:59.002Z,101603.27
2018-04-21T02:13:30.766Z,101606.58
2018-04-21T02:16:12.950Z,101602.66
2018-04-21T02:18:44.551Z,101603.44
2018-04-21T02:21:15.958Z,101605.41
2018-04-21T02:23:47.394Z,101603.22
2018-04-21T02:26:18.709Z,101603.23
2018-04-21T02:28:51.279Z,101611.70
2018-04-21T02:31:22.956Z,101610.02
2018-04-21T02:33:54.633Z,101606.55
2018-04-21T02:36:26.024Z,101612.66
2018-04-21T02:38:57.202Z,101608.98
2018-04-21T02:41:28.669Z,101611.98
2018-04-21T02:44:00.967Z,101606.53
2018-04-21T02:46:33.019Z,101604.38
2018-04-21T02:49:06.350Z,101579.72
2018-04-21T02:51:38.491Z,101602.52
2018-04-21T02:54:09.837Z,101609.37
2018-04-21T02:56:42.079Z,101609.80
2018-04-21T02:59:13.784Z,101605.66
2018-04-21T03:01:45.662Z,101602.22
2018-04-21T03:04:17.092Z,101602.46
2018-04-21T03:06:48.707Z,101607.97
2018-04-21T03:09:20.042Z,101597.77
2018-04-21T03:11:54.900Z,101595.73
2018-04-21T03:14:26.793Z,101602.72
2018-04-21T03:16:58.569Z,101600.63
2018-04-21T03:19:29.900Z,101604.27
2018-04-21T03:22:01.893Z,101601.86
2018-04-21T03:24:33.321Z,101598.56
2018-04-21T03:27:06.293Z,101597.48
2018-04-21T03:29:37.708Z,101601.19
2018-04-21T03:32:09.519Z,101596.98
2018-04-21T03:34:40.774Z,101594.61
2018-04-21T03:37:16.853Z,101597.58
2018-04-21T03:39:49.085Z,101592.21
2018-04-21T03:42:20.894Z,101589.33
2018-04-21T03:44:52.362Z,101595.42
2018-04-21T03:47:24.264Z,101589.66
2018-04-21T03:49:56.916Z,101593.20
2018-04-21T03:52:29.138Z,101591.27
2018-04-21T03:55:00.976Z,101585.47
2018-04-21T03:57:34.080Z,101593.88
2018-04-21T04:00:08.963Z,101585.64
2018-04-21T04:02:40.218Z,101589.44
2018-04-21T04:05:11.776Z,101586.40
2018-04-21T04:07:43.092Z,101594.41
2018-04-21T04:10:14.858Z,101599.63
2018-04-21T04:12:46.939Z,101595.39
2018-04-21T04:15:29.640Z,101599.67
2018-04-21T04:19:08.311Z,101597.63
2018-04-21T04:22:51.728Z,101606.45
2018-04-21T04:25:23.092Z,101585.66
2018-04-21T04:27:54.895Z,101600.20
2018-04-21T04:30:26.746Z,101610.48
2018-04-21T04:32:58.126Z,101609.41
2018-04-21T04:35:35.895Z,101618.01
2018-04-21T04:38:07.175Z,101616.42
2018-04-21T04:40:39.020Z,101619.63
2018-04-21T04:43:17.154Z,101619.32
2018-04-21T04:45:49.341Z,101624.91
2018-04-21T04:48:21.390Z,101628.18
2018-04-21T04:50:55.224Z,101638.34
2018-04-21T04:53:27.449Z,101630.06
2018-04-21T04:55:59.709Z,101639.84
2018-04-21T04:58:31.563Z,101644.47
2018-04-21T05:01:04.261Z,101645.31
2018-04-21T05:03:36.293Z,101650.17
2018-04-21T05:06:07.684Z,101648.06
2018-04-21T05:08:40.894Z,101654.69
2018-04-21T05:11:12.488Z,101659.39
2018-04-21T05:13:44.185Z,101660.81
2018-04-21T05:16:15.986Z,101662.02
2018-04-21T05:18:47.332Z,101666.27
2018-04-21T05:21:23.417Z,101663.78
2018-04-21T05:23:55.710Z,101666.80
2018-04-21T05:26:27.303Z,101667.16
2018-04-21T05:28:59.916Z,101669.09
2018-04-21T05:31:31.747Z,101674.25
2018-04-21T05:34:06.067Z,101641.56
2018-04-21T05:36:38.185Z,101673.22
2018-04-21T05:39:09.632Z,101681.49
2018-04-21T05:41:50.509Z,101685.05
2018-04-21T05:44:22.271Z,101695.16
2018-04-21T05:46:55.352Z,101689.50
2018-04-21T05:49:28.763Z,101698.97
2018-04-21T05:52:00.362Z,101695.06
2018-04-21T05:54:33.041Z,101697.00
2018-04-21T05:57:05.311Z,101692.78
2018-04-21T05:59:37.081Z,101697.35
2018-04-21T06:02:13.772Z,101702.56
2018-04-21T06:04:46.910Z,101705.37
2018-04-21T06:07:18.298Z,101702.51
2018-04-21T06:09:50.901Z,101695.39
2018-04-21T06:12:22.088Z,101694.34
2018-04-21T06:14:53.471Z,101691.97
2018-04-21T06:17:25.761Z,101696.27
2018-04-21T06:20:04.454Z,101698.24
2018-04-21T06:22:38.930Z,101701.95
2018-04-21T06:25:23.048Z,101704.27
2018-04-21T06:27:55.475Z,101698.40
2018-04-21T06:30:27.456Z,101699.75
2018-04-21T06:32:59.879Z,101696.84
2018-04-21T06:35:38.905Z,101709.70
2018-04-21T06:38:10.371Z,101705.55
2018-04-21T06:40:43.225Z,101707.95
2018-04-21T06:43:16.601Z,101711.21
2018-04-21T06:45:49.248Z,101712.47
2018-04-21T06:48:20.654Z,101710.83
2018-04-21T06:51:02.983Z,101707.97
2018-04-21T06:53:35.609Z,101711.59
2018-04-21T06:56:10.395Z,101715.22
2018-04-21T06:58:54.515Z,101714.45
2018-04-21T07:01:37.787Z,101718.39
2018-04-21T07:04:25.998Z,101719.03
2018-04-21T07:07:00.564Z,101727.42
2018-04-21T07:09:32.070Z,101723.17
2018-04-21T07:12:04.603Z,101732.64
2018-04-21T07:14:39.058Z,101716.17
2018-04-21T07:17:12.364Z,101724.39
2018-04-21T07:19:46.972Z,101729.04
2018-04-21T07:22:20.763Z,101722.97
2018-04-21T07:24:53.461Z,101727.09
2018-04-21T07:27:43.567Z,101724.34
2018-04-21T07:30:26.852Z,101719.00
2018-04-21T07:35:35.436Z,101717.45
2018-04-21T07:38:05.874Z,101718.33
2018-04-21T07:40:36.491Z,101717.42
2018-04-21T07:43:08.819Z,101722.94
2018-04-21T07:45:39.737Z,101724.11
2018-04-21T07:48:10.310Z,101727.05
2018-04-21T07:56:18.227Z,101725.00
2018-04-21T07:58:49.584Z,101728.52
2018-04-21T08:01:20.369Z,101726.31
2018-04-21T08:03:52.239Z,101724.39
2018-04-21T08:06:22.971Z,101727.34
2018-04-21T08:08:53.937Z,101723.72
2018-04-21T08:11:24.296Z,101722.34
2018-04-21T08:13:55.884Z,101726.03
2018-04-21T08:16:28.137Z,101727.31
2018-04-21T08:18:58.699Z,101733.97
2018-04-21T08:21:29.447Z,101736.28
2018-04-21T08:23:59.972Z,101733.03
2018-04-21T08:26:31.376Z,101745.17
2018-04-21T08:29:01.863Z,101747.58
2018-04-21T08:31:33.110Z,101749.13
2018-04-21T08:34:03.448Z,101736.75
2018-04-21T08:36:34.186Z,101748.98
2018-04-21T08:39:06.754Z,101735.08
2018-04-21T08:45:13.589Z,101745.33
2018-04-21T08:47:44.130Z,101749.83
2018-04-21T08:50:14.547Z,101750.98
2018-04-21T08:53:10.830Z,101747.39
2018-04-21T08:55:41.904Z,101748.87
2018-04-21T08:58:13.124Z,101746.49
2018-04-21T09:00:43.881Z,101744.14
2018-04-21T09:03:14.966Z,101748.67
2018-04-21T09:05:45.875Z,101753.05
2018-04-21T09:08:16.211Z,101747.75
2018-04-21T09:10:46.533Z,101750.86
2018-04-21T09:13:19.680Z,101754.67
2018-04-21T09:15:51.511Z,101749.97
2018-04-21T09:18:23.078Z,101722.34
2018-04-21T09:20:55.862Z,101752.38
2018-04-21T09:23:26.584Z,101739.45
2018-04-21T09:25:57.888Z,101747.41
2018-04-21T09:28:28.503Z,101744.19
2018-04-21T09:31:10.768Z,101738.05
2018-04-21T09:33:52.913Z,101742.85
2018-04-21T09:36:23.335Z,101729.52
2018-04-21T09:38:54.888Z,101746.23
2018-04-21T09:41:27.258Z,101749.00
2018-04-21T09:43:57.974Z,101739.47
2018-04-21T09:46:32.153Z,101733.24
2018-04-21T09:49:02.637Z,101731.36
2018-04-21T09:51:33.620Z,101732.82
2018-04-21T09:54:04.393Z,101728.91
2018-04-21T09:56:34.969Z,101728.39
2018-04-21T09:59:05.522Z,101725.50
2018-04-21T10:01:37.410Z,101719.61
2018-04-21T10:04:13.361Z,101724.91
2018-04-21T10:06:44.267Z,101719.39
2018-04-21T10:09:14.557Z,101719.72
2018-04-21T10:11:54.619Z,101725.53
2018-04-21T10:14:34.939Z,101718.70
2018-04-21T10:17:07.115Z,101715.27
2018-04-21T10:19:40.342Z,101709.62
2018-04-21T10:22:14.071Z,101713.96
2018-04-21T10:24:45.099Z,101716.93
2018-04-21T10:27:18.955Z,101716.98
2018-04-21T10:29:53.190Z,101711.42
2018-04-21T10:32:25.993Z,101700.88
2018-04-21T10:35:01.043Z,101699.08
2018-04-21T10:37:32.456Z,101694.64
2018-04-21T10:40:03.307Z,101691.89
2018-04-21T10:42:37.977Z,101694.78
2018-04-21T10:45:19.879Z,101688.13
2018-04-21T10:47:50.961Z,101689.76
2018-04-21T10:50:24.337Z,101691.34
2018-04-21T10:52:59.772Z,101678.23
2018-04-21T10:55:36.362Z,101684.32
2018-04-21T10:58:07.272Z,101683.17
2018-04-21T11:00:40.017Z,101679.39
2018-04-21T11:03:32.326Z,101681.75
2018-04-21T11:06:05.109Z,101674.52
2018-04-21T11:08:37.635Z,101674.13
2018-04-21T11:11:16.113Z,101678.92
2018-04-21T11:13:47.604Z,101677.34
2018-04-21T11:19:28.882Z,101665.63
2018-04-21T11:22:05.158Z,101663.23
2018-04-21T11:24:42.590Z,101661.48
2018-04-21T11:27:13.168Z,101655.30
2018-04-21T11:29:44.637Z,101653.52
2018-04-21T11:32:16.638Z,101646.80
2018-04-21T11:34:57.454Z,101648.68
2018-04-21T11:37:28.930Z,101642.52
2018-04-21T11:40:14.955Z,101646.44
2018-04-21T11:42:52.631Z,101637.55
2018-04-21T11:45:26.345Z,101640.25
2018-04-21T11:47:57.543Z,101634.13
2018-04-21T11:50:32.626Z,101645.08
2018-04-21T11:53:05.017Z,101632.75
2018-04-21T11:55:36.244Z,101628.30
2018-04-21T11:58:10.023Z,101634.21
2018-04-21T12:00:44.874Z,101624.52
2018-04-21T12:03:19.222Z,101619.89
2018-04-21T12:05:51.768Z,101620.30
2018-04-21T12:08:23.923Z,101624.34
2018-04-21T12:10:55.518Z,101622.48
2018-04-21T12:13:26.736Z,101621.00
2018-04-21T12:15:57.879Z,101619.63
2018-04-21T12:18:33.439Z,101617.09
2018-04-21T12:21:06.349Z,101625.63
2018-04-21T12:23:37.046Z,101622.07
2018-04-21T12:26:09.123Z,101620.13
2018-04-21T12:28:40.158Z,101620.33
2018-04-21T12:31:11.268Z,101623.18
2018-04-21T12:33:42.051Z,101624.41
2018-04-21T12:36:12.835Z,101611.61
2018-04-21T12:38:46.362Z,101614.33
2018-04-21T12:41:18.225Z,101610.15
2018-04-21T12:44:02.245Z,101611.71
2018-04-21T12:46:45.575Z,101597.52
2018-04-21T12:49:16.128Z,101595.16
2018-04-21T12:51:51.638Z,101600.42
2018-04-21T12:54:27.292Z,101593.70
2018-04-21T12:56:59.652Z,101599.00
2018-04-21T12:59:31.580Z,101591.07
2018-04-21T13:02:05.968Z,101592.75
2018-04-21T13:04:36.859Z,101598.30
2018-04-21T13:07:07.408Z,101588.17
2018-04-21T13:09:39.880Z,101580.80
2018-04-21T13:12:10.808Z,101572.25
2018-04-21T13:14:41.269Z,101582.17
2018-04-21T13:17:11.684Z,101576.67
2018-04-21T13:19:44.547Z,101574.20
2018-04-21T13:22:16.056Z,101571.30
2018-04-21T13:24:50.600Z,101570.44
2018-04-21T13:27:22.317Z,101561.28
2018-04-21T13:29:58.112Z,101560.09
2018-04-21T13:32:29.679Z,101558.13
2018-04-21T13:35:16.656Z,101554.36
2018-04-21T13:37:48.659Z,101547.87
2018-04-21T13:40:19.335Z,101544.80
2018-04-21T13:42:55.805Z,101545.22
2018-04-21T13:45:27.049Z,101537.90
2018-04-21T13:47:59.303Z,101531.56
2018-04-21T13:50:31.637Z,101531.45
2018-04-21T13:53:02.706Z,101528.28
2018-04-21T13:55:33.263Z,101520.99
2018-04-21T13:58:03.818Z,101514.80
2018-04-21T14:00:35.454Z,101513.23
2018-04-21T14:03:08.810Z,101512.99
2018-04-21T14:05:40.021Z,101507.30
2018-04-21T14:08:11.068Z,101510.98
2018-04-21T14:10:42.959Z,101510.71
2018-04-21T14:13:14.330Z,101500.02
2018-04-21T14:15:45.155Z,101494.94
2018-04-21T14:18:15.727Z,101498.84
2018-04-21T14:20:47.341Z,101497.48
2018-04-21T14:23:20.830Z,101489.91
2018-04-21T14:25:56.668Z,101482.34
2018-04-21T14:28:30.019Z,101486.44
2018-04-21T14:31:15.783Z,101481.50
2018-04-21T14:33:57.531Z,101481.40
2018-04-21T14:36:28.886Z,101477.42
2018-04-21T14:39:20.688Z,101482.93
2018-04-21T14:41:53.011Z,101482.42
2018-04-21T14:44:27.822Z,101457.52
2018-04-21T14:47:00.528Z,101480.89
2018-04-21T14:49:32.958Z,101478.58
2018-04-21T14:52:03.395Z,101469.32
2018-04-21T14:54:34.973Z,101470.36
2018-04-21T14:57:06.454Z,101448.29
2018-04-21T14:59:38.078Z,101467.47
2018-04-21T15:02:08.764Z,101465.86
2018-04-21T15:04:40.990Z,101460.21
2018-04-21T15:07:13.606Z,101462.84
2018-04-21T15:09:43.884Z,101457.72
2018-04-21T15:12:14.178Z,101443.45
2018-04-21T15:14:48.290Z,101445.08
2018-04-21T15:17:24.639Z,101439.75
2018-04-21T15:19:58.179Z,101438.95
2018-04-21T15:22:29.095Z,101441.03
2018-04-21T15:24:59.861Z,101442.03
2018-04-21T15:27:31.258Z,101447.08
2018-04-21T15:30:07.077Z,101440.73
2018-04-21T15:32:37.506Z,101422.88
2018-04-21T15:35:08.693Z,101433.55
2018-04-21T15:37:39.236Z,101436.12
2018-04-21T15:40:21.950Z,101422.48
2018-04-21T15:42:53.059Z,101429.25
2018-04-21T15:45:23.560Z,101427.21
2018-04-21T15:48:01.617Z,101418.23
2018-04-21T15:50:38.803Z,101426.98
2018-04-21T15:53:11.234Z,101419.55
2018-04-21T15:55:41.735Z,101417.93
2018-04-21T15:58:13.073Z,101418.01
2018-04-21T16:00:45.375Z,101406.15
2018-04-21T16:03:23.182Z,101410.51
2018-04-21T16:05:53.735Z,101410.31
2018-04-21T16:08:24.702Z,101404.36
2018-04-21T16:10:56.078Z,101406.70
2018-04-21T16:13:27.030Z,101402.92
2018-04-21T16:15:59.544Z,101399.00
2018-04-21T16:18:34.011Z,101388.36
2018-04-21T16:23:43.203Z,101391.11
2018-04-21T16:26:13.385Z,101391.83
2018-04-21T16:28:43.955Z,101388.00
2018-04-21T16:31:17.415Z,101385.16
2018-04-21T16:33:50.975Z,101378.39
2018-04-21T16:36:22.820Z,101379.61
2018-04-21T16:38:55.896Z,101376.24
2018-04-21T16:41:28.339Z,101371.63
2018-04-21T16:43:59.271Z,101374.71
2018-04-21T16:46:30.422Z,101369.30
2018-04-21T16:49:17.491Z,101361.95
2018-04-21T16:51:48.211Z,101361.46
2018-04-21T16:54:20.737Z,101358.90
2018-04-21T16:56:56.011Z,101356.50
2018-04-21T16:59:32.873Z,101352.08
2018-04-21T17:02:03.709Z,101320.52
2018-04-21T17:04:34.443Z,101352.94
2018-04-21T17:07:07.978Z,101350.77
2018-04-21T17:09:38.930Z,101349.88
2018-04-21T17:12:10.185Z,101340.73
2018-04-21T17:14:41.019Z,101341.23
2018-04-21T17:17:12.244Z,101338.69
2018-04-21T17:19:44.576Z,101326.38
2018-04-21T17:22:18.350Z,101335.81
2018-04-21T17:24:50.049Z,101330.31
2018-04-21T17:27:21.565Z,101328.79
2018-04-21T17:29:52.097Z,101325.68
2018-04-21T17:32:25.212Z,101335.06
2018-04-21T17:34:57.614Z,101330.51
2018-04-21T17:37:28.545Z,101337.47
2018-04-21T17:40:00.346Z,101336.95
2018-04-21T17:42:31.830Z,101343.69
2018-04-21T17:45:14.778Z,101343.52
2018-04-21T17:47:46.366Z,101342.28
2018-04-21T17:50:18.527Z,101346.41
2018-04-21T17:52:49.467Z,101342.20
2018-04-21T17:55:24.723Z,101348.81
2018-04-21T17:58:02.058Z,101345.05
2018-04-21T18:00:32.719Z,101350.94
2018-04-21T18:03:06.485Z,101350.26
2018-04-21T18:05:37.547Z,101355.61
2018-04-21T18:08:08.465Z,101354.27
2018-04-21T18:10:39.074Z,101347.99
2018-04-21T18:13:09.368Z,101354.41
2018-04-21T18:15:39.959Z,101345.31
2018-04-21T18:18:10.773Z,101347.11
2018-04-21T18:20:52.577Z,101350.26
2018-04-21T18:23:22.862Z,101350.92
2018-04-21T18:25:55.025Z,101353.45
2018-04-21T18:28:25.857Z,101349.91
2018-04-21T18:31:03.113Z,101354.30
2018-04-21T18:33:41.319Z,101353.26
2018-04-21T18:36:14.788Z,101350.14
2018-04-21T18:38:45.581Z,101350.12
2018-04-21T18:41:16.711Z,101350.05
2018-04-21T18:43:50.246Z,101348.59
2018-04-21T18:46:20.918Z,101352.03
2018-04-21T18:48:54.635Z,101348.30
2018-04-21T18:51:26.550Z,101355.39
2018-04-21T18:54:02.075Z,101355.16
2018-04-21T18:56:33.321Z,101355.17
2018-04-21T18:59:04.348Z,101349.92
2018-04-21T19:01:35.445Z,101350.36
2018-04-21T19:04:07.589Z,101351.19
2018-04-21T19:06:37.910Z,101344.17
2018-04-21T19:09:08.561Z,101353.69
2018-04-21T19:11:39.405Z,101353.07
2018-04-21T19:14:10.244Z,101360.59
2018-04-21T19:16:41.136Z,101364.36
2018-04-21T19:19:19.183Z,101355.77
2018-04-21T19:21:50.883Z,101355.67
2018-04-21T19:24:22.077Z,101362.45
2018-04-21T19:26:53.369Z,101353.99
2018-04-21T19:29:33.635Z,101345.73
2018-04-21T19:32:04.698Z,101349.48
2018-04-21T19:34:36.822Z,101337.89
2018-04-21T19:37:08.987Z,101340.19
2018-04-21T19:39:47.109Z,101347.38
2018-04-21T19:42:19.205Z,101348.92
2018-04-21T19:44:49.383Z,101351.84
2018-04-21T19:47:20.240Z,101348.05
2018-04-21T19:49:51.251Z,101346.70
2018-04-21T19:55:22.215Z,101341.80
2018-04-21T19:57:52.803Z,101344.00
2018-04-21T20:00:23.187Z,101350.23
2018-04-21T20:02:53.809Z,101345.52
2018-04-21T20:05:24.545Z,101346.87
2018-04-21T20:07:56.627Z,101343.45
2018-04-21T20:10:27.456Z,101332.41
2018-04-21T20:12:57.907Z,101333.02
2018-04-21T20:15:29.371Z,101341.07
2018-04-21T20:17:59.951Z,101334.34
2018-04-21T20:20:31.903Z,101339.48
2018-04-21T20:23:02.328Z,101328.02
2018-04-21T20:25:34.762Z,101329.63
2018-04-21T20:28:05.215Z,101326.70
2018-04-21T20:30:35.718Z,101315.18
2018-04-21T20:33:29.405Z,101327.73
2018-04-21T20:36:19.300Z,101320.23
2018-04-21T20:38:50.290Z,101317.61
2018-04-21T20:41:21.577Z,101317.47
2018-04-21T20:43:52.776Z,101312.74
2018-04-21T20:46:24.304Z,101316.11
2018-04-21T20:48:57.507Z,101312.68
2018-04-21T20:51:30.111Z,101314.13
2018-04-21T20:54:01.787Z,101315.31
2018-04-21T20:56:36.278Z,101284.22
2018-04-21T20:59:14.428Z,101314.84
2018-04-21T21:01:45.794Z,101309.83
2018-04-21T21:04:20.407Z,101306.99
2018-04-21T21:06:52.472Z,101304.00
2018-04-21T21:09:23.603Z,101298.85
2018-04-21T21:11:55.231Z,101307.13
2018-04-21T21:14:28.163Z,101307.02
2018-04-21T21:16:59.037Z,101295.23
2018-04-21T21:19:30.941Z,101303.53
2018-04-21T21:22:01.388Z,101309.20
2018-04-21T21:24:41.166Z,101309.70
2018-04-21T21:27:12.122Z,101299.39
2018-04-21T21:29:42.833Z,101304.90
2018-04-21T21:32:13.715Z,101305.00
2018-04-21T21:34:44.441Z,101304.16
2018-04-21T21:37:16.408Z,101305.97
2018-04-21T21:39:46.797Z,101295.84
2018-04-21T21:42:17.490Z,101300.64
2018-04-21T21:44:47.794Z,101293.27
2018-04-21T21:47:19.457Z,101289.95
2018-04-21T21:49:50.236Z,101287.44
2018-04-21T21:52:20.744Z,101290.55
2018-04-21T21:54:52.167Z,101290.84
2018-04-21T21:57:24.775Z,101283.58
2018-04-21T21:59:57.015Z,101282.14
2018-04-21T22:02:27.326Z,101277.48
2018-04-21T22:04:58.202Z,101279.23
2018-04-21T22:07:32.564Z,101286.97
2018-04-21T22:10:04.338Z,101291.78
2018-04-21T22:12:35.745Z,101293.47
2018-04-21T22:15:07.259Z,101291.24
2018-04-21T22:17:38.140Z,101291.48
2018-04-21T22:20:08.534Z,101286.48
2018-04-21T22:22:38.927Z,101285.09
2018-04-21T22:25:10.851Z,101288.88
2018-04-21T22:27:42.220Z,101286.86
2018-04-21T22:30:17.834Z,101285.95
2018-04-21T22:32:48.228Z,101290.94
2018-04-21T22:35:18.745Z,101300.61
2018-04-21T22:37:48.969Z,101298.48
2018-04-21T22:40:20.078Z,101296.09
2018-04-21T22:43:00.445Z,101288.23
2018-04-21T22:50:19.965Z,101277.61
2018-04-21T22:52:51.579Z,101279.24
2018-04-21T22:55:25.154Z,101265.56
2018-04-21T22:57:57.621Z,101277.22
2018-04-21T23:00:29.761Z,101263.69
2018-04-21T23:03:00.957Z,101258.27
2018-04-21T23:05:32.053Z,101258.88
2018-04-21T23:08:02.647Z,101256.90
2018-04-21T23:10:33.878Z,101260.37
2018-04-21T23:13:04.474Z,101255.33
2018-04-21T23:15:35.612Z,101250.11
2018-04-21T23:18:05.993Z,101244.41
2018-04-21T23:20:36.554Z,101236.45
2018-04-21T23:23:06.816Z,101238.13
2018-04-21T23:25:37.630Z,101242.05
2018-04-21T23:28:08.504Z,101233.39
2018-04-21T23:30:38.995Z,101220.20
2018-04-21T23:33:09.560Z,101229.87
2018-04-21T23:35:40.453Z,101231.61
2018-04-21T23:38:13.318Z,101226.53
2018-04-21T23:40:44.009Z,101224.82
2018-04-21T23:43:23.319Z,101214.95
2018-04-21T23:45:57.089Z,101217.06
2018-04-21T23:48:28.458Z,101224.26
2018-04-21T23:50:59.238Z,101215.27
2018-04-21T23:53:32.908Z,101228.51
2018-04-21T23:56:14.738Z,101221.32
2018-04-21T23:58:45.226Z,101218.88
